createdAt,value
2023-04-18T04:00:08.683Z,17.65
2023-04-18T04:02:35.487Z,16.67
2023-04-18T04:05:02.665Z,19.77
2023-04-18T04:07:29.648Z,13.27
2023-04-18T04:09:56.410Z,13.85
2023-04-18T04:12:23.055Z,15.93
2023-04-18T04:14:49.856Z,14.60
2023-04-18T04:17:16.649Z,17.02
2023-04-18T04:19:43.498Z,12.40
2023-04-18T04:22:10.425Z,15.82
2023-04-18T04:24:38.493Z,12.40
2023-04-18T04:27:05.317Z,15.77
2023-04-18T04:29:32.087Z,13.15
2023-04-18T04:31:59.639Z,13.18
2023-04-18T04:34:26.773Z,11.65
2023-04-18T04:36:54.382Z,18.13
2023-04-18T04:39:21.198Z,12.27
2023-04-18T04:41:49.542Z,11.63
2023-04-18T04:44:17.951Z,13.15
2023-04-18T04:46:44.923Z,14.70
2023-04-18T04:49:12.032Z,12.05
2023-04-18T04:51:39.810Z,14.25
2023-04-18T04:54:06.827Z,14.18
2023-04-18T04:56:33.672Z,14.95
2023-04-18T04:59:00.883Z,14.63
2023-04-18T05:01:27.625Z,13.02
2023-04-18T05:03:54.929Z,17.23
2023-04-18T05:06:22.774Z,17.58
2023-04-18T05:08:50.745Z,12.95
2023-04-18T05:11:18.067Z,12.90
2023-04-18T05:13:44.743Z,18.67
2023-04-18T05:16:11.555Z,16.65
2023-04-18T05:18:40.282Z,17.35
2023-04-18T05:21:07.386Z,15.00
2023-04-18T05:23:37.443Z,19.52
2023-04-18T05:26:05.205Z,14.43
2023-04-18T05:28:32.354Z,15.13
2023-04-18T05:31:02.036Z,26.23
2023-04-18T05:33:29.612Z,15.38
2023-04-18T05:35:56.991Z,11.60
2023-04-18T05:38:23.813Z,13.07
2023-04-18T05:40:55.508Z,15.57
2023-04-18T05:43:22.996Z,16.63
2023-04-18T05:45:52.243Z,15.82
2023-04-18T05:48:19.391Z,17.67
2023-04-18T05:50:46.132Z,20.60
2023-04-18T05:53:13.015Z,12.02
2023-04-18T05:55:40.941Z,15.52
2023-04-18T05:58:07.888Z,15.10
2023-04-18T06:00:35.075Z,20.25
2023-04-18T06:03:02.067Z,16.08
2023-04-18T06:05:29.454Z,15.48
2023-04-18T06:07:56.359Z,17.95
2023-04-18T06:10:23.251Z,16.38
2023-04-18T06:12:50.052Z,16.27
2023-04-18T06:15:16.934Z,17.92
2023-04-18T06:17:44.583Z,14.65
2023-04-18T06:20:11.518Z,12.73
2023-04-18T06:22:38.218Z,16.45
2023-04-18T06:25:05.656Z,13.25
2023-04-18T06:27:32.474Z,14.80
2023-04-18T06:29:59.236Z,13.05
2023-04-18T06:32:26.149Z,14.93
2023-04-18T06:34:53.212Z,17.23
2023-04-18T06:37:20.682Z,17.27
2023-04-18T06:39:47.505Z,13.55
2023-04-18T06:42:14.588Z,17.15
2023-04-18T06:44:43.178Z,16.70
2023-04-18T06:47:10.747Z,14.18
2023-04-18T06:49:37.663Z,13.32
2023-04-18T06:52:04.532Z,19.00
2023-04-18T06:54:31.244Z,17.55
2023-04-18T06:56:58.551Z,21.20
2023-04-18T06:59:25.485Z,17.83
2023-04-18T07:01:52.241Z,14.25
2023-04-18T07:04:19.315Z,21.48
2023-04-18T07:06:46.364Z,18.40
2023-04-18T07:09:13.325Z,17.45
2023-04-18T07:11:40.707Z,13.27
2023-04-18T07:14:07.515Z,16.23
2023-04-18T07:16:34.809Z,19.20
2023-04-18T07:19:01.555Z,19.13
2023-04-18T07:21:28.344Z,18.75
2023-04-18T07:23:55.331Z,13.52
2023-04-18T07:26:22.276Z,15.32
2023-04-18T07:28:49.501Z,15.88
2023-04-18T07:31:16.580Z,15.32
2023-04-18T07:33:43.668Z,18.65
2023-04-18T07:36:10.866Z,12.80
2023-04-18T07:38:37.740Z,16.38
2023-04-18T07:41:04.535Z,20.38
2023-04-18T07:43:31.715Z,21.27
2023-04-18T07:45:58.649Z,15.88
2023-04-18T07:48:26.070Z,13.60
2023-04-18T07:50:53.410Z,18.35
2023-04-18T07:53:20.486Z,12.15
2023-04-18T07:55:47.321Z,12.98
2023-04-18T07:58:14.153Z,11.95
2023-04-18T08:00:42.690Z,14.27
2023-04-18T08:03:12.883Z,12.80
2023-04-18T08:05:41.173Z,17.27
2023-04-18T08:08:09.802Z,16.80
2023-04-18T08:10:36.833Z,12.60
2023-04-18T08:13:04.012Z,16.25
2023-04-18T08:15:32.886Z,11.35
2023-04-18T08:18:00.814Z,13.43
2023-04-18T08:20:27.911Z,14.05
2023-04-18T08:23:05.170Z,12.57
2023-04-18T08:25:36.211Z,11.63
2023-04-18T08:28:03.870Z,11.23
2023-04-18T08:30:31.147Z,13.40
2023-04-18T08:32:59.097Z,11.38
2023-04-18T08:35:26.082Z,10.32
2023-04-18T08:37:52.967Z,11.68
2023-04-18T08:40:20.397Z,9.30
2023-04-18T08:42:47.314Z,6.35
2023-04-18T08:45:14.651Z,7.63
2023-04-18T08:47:42.345Z,9.20
2023-04-18T08:50:10.992Z,9.45
2023-04-18T08:52:44.934Z,12.00
2023-04-18T08:55:11.633Z,10.80
2023-04-18T08:57:38.524Z,10.73
2023-04-18T09:00:09.989Z,6.38
2023-04-18T09:02:46.948Z,10.80
2023-04-18T09:05:19.769Z,12.38
2023-04-18T09:07:50.761Z,8.13
2023-04-18T09:10:29.300Z,10.27
2023-04-18T09:15:27.267Z,10.38
2023-04-18T09:17:56.459Z,9.30
2023-04-18T09:20:35.552Z,9.85
2023-04-18T09:23:05.073Z,11.82
2023-04-18T09:25:43.197Z,9.45
2023-04-18T09:28:35.259Z,8.52
2023-04-18T09:31:13.747Z,9.77
2023-04-18T09:33:52.807Z,9.35
2023-04-18T09:36:24.889Z,7.78
2023-04-18T09:38:56.258Z,8.25
2023-04-18T09:41:24.343Z,5.25
2023-04-18T09:44:15.648Z,8.85
2023-04-18T09:46:46.016Z,7.63
2023-04-18T09:49:14.072Z,11.10
2023-04-18T09:51:43.111Z,8.23
2023-04-18T09:54:15.264Z,14.07
2023-04-18T09:56:46.799Z,10.75
2023-04-18T09:59:21.230Z,16.45
2023-04-18T10:01:49.743Z,7.55
2023-04-18T10:04:19.926Z,10.50
2023-04-18T10:06:47.161Z,10.20
2023-04-18T10:09:17.664Z,10.35
2023-04-18T10:11:44.739Z,9.05
2023-04-18T10:14:13.418Z,7.65
2023-04-18T10:16:41.189Z,17.52
2023-04-18T10:19:24.884Z,9.18
2023-04-18T10:22:02.192Z,7.32
2023-04-18T10:24:48.002Z,8.43
2023-04-18T10:27:18.188Z,8.27
2023-04-18T10:29:53.317Z,10.70
2023-04-18T10:32:23.022Z,5.78
2023-04-18T10:34:50.497Z,9.25
2023-04-18T10:37:18.833Z,6.25
2023-04-18T10:40:00.257Z,8.70
2023-04-18T10:42:52.107Z,7.47
2023-04-18T10:45:20.369Z,11.05
2023-04-18T10:47:47.252Z,7.88
2023-04-18T10:50:14.597Z,6.30
2023-04-18T10:52:42.709Z,5.68
2023-04-18T10:55:28.621Z,9.30
2023-04-18T10:57:58.504Z,5.80
2023-04-18T11:00:25.968Z,7.20
2023-04-18T11:02:57.495Z,7.85
2023-04-18T11:05:27.960Z,7.70
2023-04-18T11:07:55.483Z,5.13
2023-04-18T11:10:27.105Z,7.50
2023-04-18T11:12:54.959Z,7.35
2023-04-18T11:15:23.576Z,4.20
2023-04-18T11:18:04.183Z,7.05
2023-04-18T11:20:39.214Z,4.63
2023-04-18T11:23:20.983Z,10.55
2023-04-18T11:25:51.941Z,4.78
2023-04-18T11:28:21.523Z,5.50
2023-04-18T11:30:48.407Z,4.78
2023-04-18T11:33:15.354Z,6.28
2023-04-18T11:35:46.493Z,8.68
2023-04-18T11:38:14.996Z,5.93
2023-04-18T11:40:49.468Z,6.38
2023-04-18T11:43:21.817Z,6.95
2023-04-18T11:45:56.448Z,4.93
2023-04-18T11:48:24.083Z,6.10
2023-04-18T11:50:51.126Z,5.88
2023-04-18T11:53:37.156Z,13.80
2023-04-18T11:56:04.761Z,4.55
2023-04-18T11:58:35.428Z,6.55
2023-04-18T12:01:22.504Z,9.20
2023-04-18T12:04:07.152Z,8.70
2023-04-18T12:06:46.933Z,5.35
2023-04-18T12:09:15.427Z,6.43
2023-04-18T12:11:42.601Z,7.43
2023-04-18T12:14:21.514Z,4.53
2023-04-18T12:16:52.104Z,8.48
2023-04-18T12:19:20.849Z,6.45
2023-04-18T12:22:01.691Z,6.85
2023-04-18T12:24:29.900Z,13.00
2023-04-18T12:26:57.835Z,9.23
2023-04-18T12:29:30.326Z,5.25
2023-04-18T12:31:57.170Z,8.57
2023-04-18T12:34:23.933Z,5.43
2023-04-18T12:36:50.797Z,8.60
2023-04-18T12:39:17.561Z,6.53
2023-04-18T12:41:44.470Z,10.15
2023-04-18T12:44:11.445Z,10.02
2023-04-18T12:46:38.623Z,6.55
2023-04-18T12:49:05.708Z,6.85
2023-04-18T12:51:32.405Z,8.20
2023-04-18T12:53:59.188Z,5.57
2023-04-18T12:56:25.896Z,6.63
2023-04-18T12:58:52.622Z,5.85
2023-04-18T13:01:19.811Z,5.82
2023-04-18T13:03:51.098Z,4.60
2023-04-18T13:06:24.505Z,7.68
2023-04-18T13:08:51.291Z,7.28
2023-04-18T13:11:18.151Z,4.97
2023-04-18T13:13:44.872Z,6.43
2023-04-18T13:16:11.774Z,4.53
2023-04-18T13:18:38.468Z,4.97
2023-04-18T13:21:05.286Z,4.45
2023-04-18T13:23:31.970Z,5.35
2023-04-18T13:25:58.661Z,5.60
2023-04-18T13:28:25.401Z,8.10
2023-04-18T13:30:52.159Z,6.00
2023-04-18T13:33:19.056Z,5.30
2023-04-18T13:35:45.802Z,8.02
2023-04-18T13:38:12.541Z,6.32
2023-04-18T13:40:39.210Z,6.80
2023-04-18T13:43:05.971Z,8.07
2023-04-18T13:45:32.742Z,4.57
2023-04-18T13:47:59.504Z,3.03
2023-04-18T13:50:26.781Z,3.40
2023-04-18T13:52:54.664Z,2.08
2023-04-18T13:55:21.566Z,6.45
2023-04-18T13:57:48.364Z,3.83
2023-04-18T14:00:15.454Z,3.65
2023-04-18T14:02:42.466Z,7.75
2023-04-18T14:05:09.818Z,3.53
2023-04-18T14:07:38.366Z,3.40
2023-04-18T14:10:05.766Z,4.70
2023-04-18T14:12:32.658Z,4.85
2023-04-18T14:14:59.495Z,6.90
2023-04-18T14:17:26.314Z,3.63
2023-04-18T14:19:53.200Z,6.78
2023-04-18T14:22:20.046Z,3.85
2023-04-18T14:24:46.963Z,5.55
2023-04-18T14:27:13.830Z,3.50
2023-04-18T14:29:41.154Z,3.85
2023-04-18T14:32:07.901Z,2.53
2023-04-18T14:34:36.665Z,3.40
2023-04-18T14:37:04.350Z,12.55
2023-04-18T14:39:31.157Z,4.18
2023-04-18T14:41:58.003Z,2.88
2023-04-18T14:44:24.766Z,4.93
2023-04-18T14:46:51.492Z,4.05
2023-04-18T14:49:18.274Z,3.63
2023-04-18T14:51:44.982Z,5.78
2023-04-18T14:54:11.701Z,5.25
2023-04-18T14:56:38.383Z,5.63
2023-04-18T14:59:05.056Z,4.03
2023-04-18T15:01:31.823Z,7.38
2023-04-18T15:03:59.459Z,5.43
2023-04-18T15:06:27.227Z,8.63
2023-04-18T15:08:53.999Z,5.55
2023-04-18T15:11:20.854Z,7.20
2023-04-18T15:13:47.844Z,4.43
2023-04-18T15:16:14.684Z,4.80
2023-04-18T15:18:41.592Z,7.57
2023-04-18T15:21:08.620Z,5.97
2023-04-18T15:23:35.750Z,7.10
2023-04-18T15:26:02.777Z,11.45
2023-04-18T15:28:29.536Z,10.75
2023-04-18T15:30:56.209Z,7.13
2023-04-18T15:33:22.956Z,6.43
2023-04-18T15:35:49.652Z,7.95
2023-04-18T15:38:16.317Z,4.85
2023-04-18T15:40:46.113Z,8.65
2023-04-18T15:43:13.737Z,5.97
2023-04-18T15:45:40.797Z,6.47
2023-04-18T15:48:07.692Z,7.25
2023-04-18T15:50:34.378Z,7.15
2023-04-18T15:53:01.877Z,7.70
2023-04-18T15:55:28.711Z,7.05
2023-04-18T15:57:55.698Z,8.68
2023-04-18T16:00:23.237Z,6.78
2023-04-18T16:02:50.187Z,15.18
2023-04-18T16:05:17.440Z,8.73
2023-04-18T16:07:44.398Z,7.25
2023-04-18T16:10:12.702Z,5.70
2023-04-18T16:12:40.044Z,10.63
2023-04-18T16:15:09.288Z,12.40
2023-04-18T16:17:36.901Z,9.05
2023-04-18T16:20:04.331Z,8.55
2023-04-18T16:22:31.095Z,10.45
2023-04-18T16:24:57.924Z,10.60
2023-04-18T16:27:24.649Z,18.88
2023-04-18T16:29:51.575Z,6.70
2023-04-18T16:32:19.663Z,16.75
2023-04-18T16:34:46.372Z,10.95
2023-04-18T16:37:13.055Z,10.38
2023-04-18T16:39:39.832Z,8.77
2023-04-18T16:42:06.618Z,8.77
2023-04-18T16:44:33.621Z,11.75
2023-04-18T16:47:00.440Z,7.38
2023-04-18T16:49:27.244Z,7.50
2023-04-18T16:51:54.187Z,11.02
2023-04-18T16:54:21.041Z,9.48
2023-04-18T16:56:48.333Z,6.60
2023-04-18T16:59:15.628Z,6.25
2023-04-18T17:01:42.784Z,10.40
2023-04-18T17:04:10.204Z,7.35
2023-04-18T17:06:37.930Z,10.00
2023-04-18T17:09:06.444Z,7.03
2023-04-18T17:11:38.860Z,13.07
2023-04-18T17:14:06.529Z,9.20
2023-04-18T17:16:33.428Z,14.65
2023-04-18T17:19:00.324Z,11.18
2023-04-18T17:21:27.330Z,6.80
2023-04-18T17:23:54.670Z,7.78
2023-04-18T17:26:24.208Z,9.90
2023-04-18T17:28:51.367Z,15.65
2023-04-18T17:31:18.221Z,9.57
2023-04-18T17:33:45.131Z,9.90
2023-04-18T17:36:11.928Z,13.90
2023-04-18T17:38:38.744Z,10.10
2023-04-18T17:41:05.668Z,7.50
2023-04-18T17:43:32.457Z,9.38
2023-04-18T17:46:01.102Z,8.25
2023-04-18T17:48:27.896Z,7.38
2023-04-18T17:50:54.631Z,9.10
2023-04-18T17:53:21.533Z,9.57
2023-04-18T17:55:52.252Z,10.07
2023-04-18T17:58:19.923Z,8.38
2023-04-18T18:00:46.753Z,10.00
2023-04-18T18:03:14.538Z,7.93
2023-04-18T18:05:42.040Z,9.32
2023-04-18T18:08:08.774Z,10.02
2023-04-18T18:10:35.612Z,10.40
2023-04-18T18:13:02.357Z,8.85
2023-04-18T18:15:29.183Z,5.32
2023-04-18T18:17:56.095Z,7.28
2023-04-18T18:20:23.169Z,8.45
2023-04-18T18:22:50.775Z,7.03
2023-04-18T18:25:17.674Z,7.70
2023-04-18T18:27:44.712Z,7.47
2023-04-18T18:30:11.572Z,8.80
2023-04-18T18:32:38.260Z,6.47
2023-04-18T18:35:06.144Z,11.73
2023-04-18T18:37:33.183Z,10.10
2023-04-18T18:40:00.000Z,8.57
2023-04-18T18:42:26.771Z,7.78
2023-04-18T18:44:53.545Z,11.00
2023-04-18T18:47:20.324Z,8.85
2023-04-18T18:49:48.657Z,6.15
2023-04-18T18:52:15.961Z,10.98
2023-04-18T18:54:42.742Z,9.80
2023-04-18T18:57:09.943Z,11.25
2023-04-18T18:59:36.848Z,12.27
2023-04-18T19:02:04.932Z,11.07
2023-04-18T19:04:32.836Z,9.43
2023-04-18T19:06:59.684Z,9.82
2023-04-18T19:09:26.444Z,6.72
2023-04-18T19:11:54.556Z,7.88
2023-04-18T19:14:21.254Z,7.95
2023-04-18T19:16:48.140Z,10.68
2023-04-18T19:19:15.631Z,9.65
2023-04-18T19:21:45.782Z,7.47
2023-04-18T19:24:13.056Z,9.65
2023-04-18T19:26:39.856Z,7.32
2023-04-18T19:29:07.669Z,9.73
2023-04-18T19:31:35.305Z,13.52
2023-04-18T19:34:02.082Z,14.57
2023-04-18T19:36:28.748Z,8.88
2023-04-18T19:38:55.808Z,8.73
2023-04-18T19:41:22.520Z,12.65
2023-04-18T19:43:49.175Z,15.88
2023-04-18T19:46:15.978Z,9.15
2023-04-18T19:48:43.125Z,7.63
2023-04-18T19:51:10.327Z,10.52
2023-04-18T19:53:37.094Z,15.13
2023-04-18T19:56:04.173Z,7.70
2023-04-18T19:58:35.792Z,10.60
2023-04-18T20:01:06.047Z,10.65
2023-04-18T20:03:33.959Z,11.15
2023-04-18T20:06:01.422Z,11.23
2023-04-18T20:08:29.279Z,10.43
2023-04-18T20:10:56.435Z,9.57
2023-04-18T20:13:23.344Z,17.17
2023-04-18T20:15:50.391Z,8.32
2023-04-18T20:18:17.268Z,8.43
2023-04-18T20:20:44.050Z,10.95
2023-04-18T20:23:11.540Z,10.43
2023-04-18T20:25:38.192Z,11.85
2023-04-18T20:28:05.314Z,10.45
2023-04-18T20:30:32.325Z,8.18
2023-04-18T20:32:59.050Z,12.50
2023-04-18T20:35:27.915Z,7.88
2023-04-18T20:37:55.170Z,11.20
2023-04-18T20:40:22.205Z,10.50
2023-04-18T20:42:48.900Z,9.18
2023-04-18T20:45:15.869Z,8.13
2023-04-18T20:47:43.514Z,10.10
2023-04-18T20:50:10.971Z,8.60
2023-04-18T20:52:37.855Z,10.18
2023-04-18T20:55:04.796Z,10.32
2023-04-18T20:57:31.534Z,16.90
2023-04-18T20:59:59.440Z,10.25
2023-04-18T21:02:26.505Z,9.30
2023-04-18T21:04:53.531Z,9.57
2023-04-18T21:07:20.405Z,11.77
2023-04-18T21:09:47.452Z,8.63
2023-04-18T21:12:14.279Z,21.30
2023-04-18T21:14:41.026Z,12.63
2023-04-18T21:17:09.565Z,16.27
2023-04-18T21:19:36.775Z,12.68
2023-04-18T21:22:04.275Z,9.93
2023-04-18T21:24:31.034Z,14.02
2023-04-18T21:26:57.758Z,8.60
2023-04-18T21:29:24.415Z,13.68
2023-04-18T21:31:51.697Z,17.13
2023-04-18T21:34:18.588Z,20.50
2023-04-18T21:36:45.461Z,12.73
2023-04-18T21:39:12.346Z,14.95
2023-04-18T21:41:39.105Z,14.50
2023-04-18T21:44:05.992Z,11.63
2023-04-18T21:46:32.835Z,24.25
2023-04-18T21:48:59.776Z,13.02
2023-04-18T21:51:27.407Z,12.40
2023-04-18T21:53:54.367Z,20.80
2023-04-18T21:56:21.216Z,14.77
2023-04-18T21:58:49.205Z,15.73
2023-04-18T22:01:15.933Z,12.95
2023-04-18T22:03:42.984Z,13.52
2023-04-18T22:06:10.333Z,15.00
2023-04-18T22:08:37.049Z,12.95
2023-04-18T22:11:04.763Z,14.77
2023-04-18T22:13:34.250Z,11.52
2023-04-18T22:16:03.019Z,19.13
2023-04-18T22:18:33.664Z,10.68
2023-04-18T22:21:02.329Z,10.77
2023-04-18T22:23:29.994Z,17.02
2023-04-18T22:25:56.957Z,15.38
2023-04-18T22:28:23.699Z,17.92
2023-04-18T22:30:51.109Z,7.63
2023-04-18T22:33:18.259Z,15.52
2023-04-18T22:35:46.364Z,18.88
2023-04-18T22:38:13.077Z,8.55
2023-04-18T22:40:39.785Z,14.23
2023-04-18T22:43:06.443Z,10.65
2023-04-18T22:45:34.489Z,13.82
2023-04-18T22:48:01.301Z,12.18
2023-04-18T22:50:28.128Z,11.30
2023-04-18T22:52:54.800Z,21.23
2023-04-18T22:55:21.653Z,14.10
2023-04-18T22:57:48.320Z,15.15
2023-04-18T23:00:15.370Z,11.60
2023-04-18T23:02:42.263Z,15.25
2023-04-18T23:05:10.719Z,15.10
2023-04-18T23:07:37.454Z,21.15
2023-04-18T23:10:06.614Z,15.77
2023-04-18T23:12:33.463Z,16.10
2023-04-18T23:15:00.235Z,15.63
2023-04-18T23:17:26.924Z,11.63
2023-04-18T23:19:53.679Z,21.40
2023-04-18T23:22:21.337Z,21.15
2023-04-18T23:24:48.051Z,11.55
2023-04-18T23:27:14.844Z,20.65
2023-04-18T23:29:42.338Z,18.52
2023-04-18T23:32:09.079Z,15.77
2023-04-18T23:34:35.743Z,19.00
2023-04-18T23:37:02.422Z,13.25
2023-04-18T23:39:29.270Z,14.75
2023-04-18T23:41:56.215Z,17.00
2023-04-18T23:44:23.044Z,16.90
2023-04-18T23:46:50.072Z,18.35
2023-04-18T23:49:16.894Z,20.65
2023-04-18T23:51:43.597Z,17.27
2023-04-18T23:54:10.838Z,21.75
2023-04-18T23:56:37.498Z,13.32
2023-04-18T23:59:04.224Z,16.20
